Time;durP1;ratioP1;P1;durP2;ratioP2;P2;SDS_P1;SDS_P2;PMS_P1;PMS_P2;Temp;Humidity;BMP_temperature;BMP_pressure;BME280_temperature;BME280_humidity;BME280_pressure;Samples;Min_cycle;Max_cycle;Signal;HPM_P1;HPM_P2
2021/10/28 00:12:20;;;;;;;11.20;6.30;;;2.10;99.20;;;;;;2081173;28;20252;-65
2021/10/28 00:13:23;;;;;;;10.60;6.93;;;2.10;99.10;;;;;;2081298;28;20248;-65
2021/10/28 00:14:24;;;;;;;10.90;7.40;;;2.10;99.00;;;;;;2081684;28;20181;-65
2021/10/28 00:15:35;;;;;;;9.63;6.28;;;2.00;99.00;;;;;;2081706;28;20189;-65
2021/10/28 00:16:36;;;;;;;12.93;7.20;;;2.00;98.80;;;;;;2081537;28;20200;-65
2021/10/28 00:17:47;;;;;;;12.17;7.17;;;2.00;98.80;;;;;;2081715;28;20281;-64
2021/10/28 00:18:50;;;;;;;11.52;6.60;;;1.90;98.80;;;;;;2081690;28;20400;-65
2021/10/28 00:19:50;;;;;;;9.75;6.38;;;1.90;98.60;;;;;;2081529;28;20307;-65
2021/10/28 00:20:54;;;;;;;10.10;6.43;;;2.00;98.60;;;;;;2081549;28;20173;-65
2021/10/28 00:21:56;;;;;;;10.85;6.60;;;1.90;98.50;;;;;;2081332;28;20177;-65
2021/10/28 00:22:57;;;;;;;10.57;6.47;;;1.90;98.60;;;;;;2081740;28;20197;-65
2021/10/28 00:24:01;;;;;;;11.10;6.93;;;1.90;98.70;;;;;;2081506;28;20177;-66
2021/10/28 00:25:03;;;;;;;11.75;7.50;;;1.90;98.70;;;;;;2081506;28;20670;-66
2021/10/28 00:26:03;;;;;;;10.70;7.28;;;1.90;98.70;;;;;;2081557;28;20279;-66
2021/10/28 00:27:04;;;;;;;12.63;7.13;;;1.80;98.80;;;;;;2081378;28;20201;-65
2021/10/28 00:28:06;;;;;;;10.98;7.68;;;1.80;99.00;;;;;;2081455;28;20181;-65
2021/10/28 00:29:13;;;;;;;11.50;7.22;;;1.90;99.20;;;;;;2080903;28;20176;-65
2021/10/28 00:30:16;;;;;;;11.07;7.05;;;1.80;99.20;;;;;;2080931;28;20207;-66
2021/10/28 00:31:17;;;;;;;12.02;7.28;;;1.90;99.30;;;;;;2080966;28;20208;-66
2021/10/28 00:32:18;;;;;;;13.23;7.43;;;1.90;99.30;;;;;;2081081;28;20258;-66
2021/10/28 00:33:19;;;;;;;11.57;7.20;;;1.90;99.30;;;;;;2081590;28;20634;-65
2021/10/28 00:34:20;;;;;;;13.37;7.80;;;1.90;99.00;;;;;;2081433;28;20271;-66
2021/10/28 00:35:21;;;;;;;12.20;7.50;;;1.90;98.90;;;;;;2081439;28;20192;-66
2021/10/28 00:36:23;;;;;;;13.65;8.10;;;1.90;99.00;;;;;;2081391;28;20187;-65
2021/10/28 00:37:24;;;;;;;13.20;8.73;;;1.90;99.10;;;;;;2081423;28;20244;-66
2021/10/28 00:38:25;;;;;;;14.77;8.37;;;1.90;99.20;;;;;;2081378;28;20251;-66
2021/10/28 00:39:25;;;;;;;12.52;8.23;;;1.90;99.00;;;;;;2081443;28;20196;-66
2021/10/28 00:40:26;;;;;;;11.87;7.60;;;1.90;98.90;;;;;;2081242;28;20224;-65
2021/10/28 00:41:27;;;;;;;14.73;8.70;;;1.90;98.80;;;;;;2081211;28;20186;-66
2021/10/28 00:42:28;;;;;;;12.98;8.57;;;1.90;98.80;;;;;;2081326;28;20539;-65
2021/10/28 00:43:30;;;;;;;13.57;8.05;;;1.90;98.70;;;;;;2080567;28;20260;-66
2021/10/28 00:44:31;;;;;;;16.25;8.77;;;1.90;98.70;;;;;;2080774;28;20181;-66
2021/10/28 00:45:32;;;;;;;16.97;8.27;;;1.90;98.80;;;;;;2081335;28;20212;-66
2021/10/28 00:46:37;;;;;;;13.18;8.55;;;1.90;98.70;;;;;;2081272;28;20189;-66
2021/10/28 00:47:40;;;;;;;12.07;8.57;;;1.90;98.80;;;;;;2081408;28;20180;-65
2021/10/28 00:48:41;;;;;;;12.52;8.23;;;1.90;99.00;;;;;;2081152;28;20173;-65
2021/10/28 00:49:42;;;;;;;15.27;9.73;;;2.00;99.30;;;;;;2081261;28;20691;-66
2021/10/28 00:50:43;;;;;;;15.97;9.20;;;2.00;99.80;;;;;;2081277;28;20184;-65
2021/10/28 00:51:44;;;;;;;13.32;8.65;;;2.10;99.90;;;;;;2080563;28;20255;-65
2021/10/28 00:52:44;;;;;;;13.63;8.30;;;2.10;99.90;;;;;;2080781;28;20260;-65
2021/10/28 00:53:46;;;;;;;13.00;8.10;;;2.10;99.90;;;;;;2080662;28;20431;-66
2021/10/28 00:54:47;;;;;;;13.32;7.85;;;2.10;99.90;;;;;;2080651;28;20580;-66
2021/10/28 00:55:52;;;;;;;14.27;8.13;;;2.10;99.90;;;;;;2081301;28;20220;-66
2021/10/28 00:56:54;;;;;;;15.32;8.13;;;2.10;99.80;;;;;;2081389;28;20211;-66
2021/10/28 00:57:56;;;;;;;14.85;8.57;;;2.10;99.60;;;;;;2080609;28;20213;-66
2021/10/28 00:58:57;;;;;;;16.90;8.73;;;2.20;99.50;;;;;;2080678;28;20195;-66
2021/10/28 00:59:58;;;;;;;16.63;8.70;;;2.20;99.40;;;;;;2081222;28;20208;-65
2021/10/28 01:01:04;;;;;;;12.75;8.25;;;2.20;99.30;;;;;;2081506;28;20225;-65
2021/10/28 01:02:05;;;;;;;14.73;8.70;;;2.20;99.30;;;;;;2081387;28;20308;-65
2021/10/28 01:03:05;;;;;;;10.37;7.63;;;2.30;99.20;;;;;;2081358;28;20715;-66
2021/10/28 01:04:06;;;;;;;14.57;9.43;;;2.30;99.20;;;;;;2081388;28;20192;-66
2021/10/28 01:05:07;;;;;;;12.07;7.67;;;2.30;99.10;;;;;;2081255;28;20189;-66
2021/10/28 01:06:09;;;;;;;13.98;8.73;;;2.30;99.10;;;;;;2081518;28;20268;-65
2021/10/28 01:07:10;;;;;;;17.77;8.50;;;2.40;99.00;;;;;;2081375;28;20201;-65
2021/10/28 01:08:11;;;;;;;13.43;8.53;;;2.40;99.00;;;;;;2080741;28;20265;-65
2021/10/28 01:09:12;;;;;;;20.70;10.55;;;2.40;98.90;;;;;;2080634;28;20183;-65
2021/10/28 01:10:13;;;;;;;19.35;9.95;;;2.50;99.00;;;;;;2080735;28;20192;-65
2021/10/28 01:11:15;;;;;;;24.33;10.23;;;2.50;99.10;;;;;;2080521;28;20232;-65
2021/10/28 01:12:15;;;;;;;20.77;10.30;;;2.50;99.30;;;;;;2081366;28;20236;-65
2021/10/28 01:13:19;;;;;;;23.73;10.50;;;2.50;99.30;;;;;;2081323;28;20228;-64
2021/10/28 01:14:21;;;;;;;29.30;12.80;;;2.50;99.30;;;;;;2081300;28;20188;-65
2021/10/28 01:15:22;;;;;;;35.17;12.95;;;2.50;99.30;;;;;;2082646;28;20213;-65
2021/10/28 01:16:23;;;;;;;20.00;10.60;;;2.50;99.30;;;;;;2082841;28;20176;-65
2021/10/28 01:17:24;;;;;;;31.10;12.50;;;2.50;99.30;;;;;;2083056;28;20208;-65
2021/10/28 01:18:25;;;;;;;95.70;19.50;;;2.60;99.30;;;;;;2082848;28;20184;-66
2021/10/28 01:19:25;;;;;;;21.07;11.30;;;2.60;99.30;;;;;;2082989;28;20181;-65
2021/10/28 01:20:26;;;;;;;53.60;15.67;;;2.60;99.30;;;;;;2083015;28;20213;-65
2021/10/28 01:21:27;;;;;;;48.37;15.93;;;2.60;99.30;;;;;;2082568;28;20636;-65
2021/10/28 01:22:28;;;;;;;157.37;23.87;;;2.60;99.20;;;;;;2083046;28;20178;-65
2021/10/28 01:23:29;;;;;;;69.30;19.37;;;2.70;99.20;;;;;;2082373;28;20177;-65
2021/10/28 01:24:30;;;;;;;92.40;25.15;;;2.60;99.10;;;;;;2082309;28;20201;-65
2021/10/28 01:25:31;;;;;;;77.60;19.10;;;2.70;99.10;;;;;;2082918;28;20181;-65
2021/10/28 01:26:32;;;;;;;45.17;14.13;;;2.70;99.00;;;;;;2082665;28;20247;-66
2021/10/28 01:27:33;;;;;;;39.07;15.17;;;2.70;99.00;;;;;;2083031;28;20206;-66
2021/10/28 01:28:37;;;;;;;225.88;30.15;;;2.70;99.00;;;;;;2082842;28;20195;-65
2021/10/28 01:29:39;;;;;;;205.82;32.30;;;2.70;99.10;;;;;;2082789;28;20193;-65
2021/10/28 01:30:39;;;;;;;158.80;37.72;;;2.70;99.20;;;;;;2082063;28;20186;-65
2021/10/28 01:31:40;;;;;;;191.83;31.97;;;2.70;99.20;;;;;;2081995;28;20714;-64
2021/10/28 01:32:41;;;;;;;45.37;14.80;;;2.70;99.20;;;;;;2082651;28;20260;-65
2021/10/28 01:33:41;;;;;;;117.17;26.07;;;2.60;99.40;;;;;;2082881;28;20185;-66
2021/10/28 01:34:44;;;;;;;115.47;22.73;;;2.60;99.50;;;;;;2082687;28;20253;-66
2021/10/28 01:35:45;;;;;;;449.73;38.25;;;2.60;99.60;;;;;;2082805;28;20173;-65
2021/10/28 01:36:46;;;;;;;103.78;20.00;;;2.60;99.70;;;;;;2082599;28;20208;-66
2021/10/28 01:37:47;;;;;;;79.37;19.33;;;2.50;99.70;;;;;;2082703;28;20213;-65
2021/10/28 01:38:49;;;;;;;70.85;16.50;;;2.60;99.70;;;;;;2082827;28;20173;-66
2021/10/28 01:39:50;;;;;;;60.03;15.77;;;2.50;99.70;;;;;;2082892;28;20500;-66
2021/10/28 01:41:00;;;;;;;42.80;15.37;;;2.50;99.60;;;;;;2082650;28;20243;-65
2021/10/28 01:42:02;;;;;;;126.43;29.67;;;2.50;99.60;;;;;;2082934;28;20207;-65
2021/10/28 01:43:03;;;;;;;29.65;13.38;;;2.50;99.60;;;;;;2082657;28;20181;-65
2021/10/28 01:44:04;;;;;;;203.97;32.43;;;2.40;99.50;;;;;;2082816;28;20173;-65
2021/10/28 01:45:06;;;;;;;70.60;21.30;;;2.40;99.50;;;;;;2082754;28;20369;-65
2021/10/28 01:46:07;;;;;;;73.30;20.02;;;2.40;99.50;;;;;;2082680;28;20239;-65
2021/10/28 01:47:14;;;;;;;107.47;25.80;;;2.40;99.30;;;;;;2082588;28;20292;-65
2021/10/28 01:48:15;;;;;;;74.88;18.77;;;2.30;99.40;;;;;;2082597;28;20541;-66
2021/10/28 01:49:34;;;;;;;50.40;16.93;;;2.30;99.30;;;;;;2082649;28;20199;-65
2021/10/28 01:50:35;;;;;;;36.65;14.65;;;2.30;99.30;;;;;;2082785;28;20200;-65
2021/10/28 01:51:35;;;;;;;80.77;18.67;;;2.30;99.30;;;;;;2082468;28;20185;-65
2021/10/28 01:52:39;;;;;;;50.97;16.30;;;2.20;99.30;;;;;;2082726;28;20227;-65
2021/10/28 01:53:42;;;;;;;65.20;15.60;;;2.20;99.40;;;;;;2082554;28;20243;-65
2021/10/28 01:54:43;;;;;;;79.15;19.83;;;2.10;99.40;;;;;;2082697;28;20186;-66
2021/10/28 01:55:45;;;;;;;122.00;28.23;;;2.10;99.40;;;;;;2082506;28;20177;-65
2021/10/28 01:56:46;;;;;;;26.98;11.88;;;2.00;99.30;;;;;;2082582;28;20228;-65
2021/10/28 01:57:47;;;;;;;43.77;13.47;;;2.00;99.20;;;;;;2082512;28;20212;-65
2021/10/28 01:58:51;;;;;;;56.00;15.80;;;2.00;99.20;;;;;;2082728;28;20173;-66
2021/10/28 01:59:52;;;;;;;54.92;16.58;;;1.90;99.20;;;;;;2082598;28;20174;-65
2021/10/28 02:00:53;;;;;;;44.63;15.53;;;1.90;99.20;;;;;;2082616;28;20173;-66
2021/10/28 02:01:54;;;;;;;56.13;15.25;;;1.90;99.20;;;;;;2082409;28;20177;-65
2021/10/28 02:02:55;;;;;;;59.87;15.47;;;1.90;99.20;;;;;;2082644;28;20192;-65
2021/10/28 02:03:55;;;;;;;257.20;28.43;;;1.80;99.00;;;;;;2082608;28;20216;-66
2021/10/28 02:04:56;;;;;;;189.30;31.97;;;1.80;99.00;;;;;;2082537;28;20694;-66
2021/10/28 02:05:57;;;;;;;54.07;15.10;;;1.70;99.10;;;;;;2082676;28;20609;-66
2021/10/28 02:06:57;;;;;;;80.17;18.43;;;1.70;99.10;;;;;;2082613;28;20224;-66
2021/10/28 02:07:58;;;;;;;170.73;32.13;;;1.70;99.20;;;;;;2082600;28;20268;-65
2021/10/28 02:08:59;;;;;;;148.55;33.55;;;1.70;99.10;;;;;;2082708;28;20227;-65
2021/10/28 02:10:00;;;;;;;153.37;27.93;;;1.70;99.10;;;;;;2082311;28;20243;-64
2021/10/28 02:11:01;;;;;;;100.77;19.30;;;1.70;99.00;;;;;;2082228;28;20593;-65
2021/10/28 02:12:01;;;;;;;93.57;24.83;;;1.60;99.00;;;;;;2082315;28;20626;-65
2021/10/28 02:13:09;;;;;;;134.97;28.73;;;1.60;99.10;;;;;;2082542;28;20212;-65
2021/10/28 02:14:09;;;;;;;44.03;14.90;;;1.50;99.20;;;;;;2081157;28;20627;-65
2021/10/28 02:15:12;;;;;;;35.03;13.27;;;1.50;99.20;;;;;;2081697;28;20184;-64
2021/10/28 02:16:13;;;;;;;38.72;15.50;;;1.50;99.10;;;;;;2082116;28;20682;-65
2021/10/28 02:17:14;;;;;;;52.27;16.43;;;1.50;99.80;;;;;;2082235;28;20205;-64
2021/10/28 02:18:15;;;;;;;42.40;14.87;;;1.40;99.50;;;;;;2082472;28;20430;-64
2021/10/28 02:19:16;;;;;;;29.40;15.10;;;1.40;99.60;;;;;;2082674;28;20448;-65
2021/10/28 02:20:17;;;;;;;24.43;13.43;;;1.40;99.70;;;;;;2082361;28;20192;-64
2021/10/28 02:21:18;;;;;;;21.30;11.60;;;1.40;99.70;;;;;;2082117;28;20192;-64
2021/10/28 02:22:19;;;;;;;42.07;13.70;;;1.50;99.80;;;;;;2082307;28;20649;-65
2021/10/28 02:23:19;;;;;;;32.30;15.17;;;1.50;99.70;;;;;;2082412;28;20242;-64
2021/10/28 02:24:20;;;;;;;40.80;13.60;;;1.40;99.70;;;;;;2082285;28;20204;-65
2021/10/28 02:25:21;;;;;;;32.87;13.83;;;1.40;99.80;;;;;;2082411;28;20181;-65
2021/10/28 02:26:22;;;;;;;44.83;14.67;;;1.40;99.90;;;;;;2081632;28;20200;-64
2021/10/28 02:27:23;;;;;;;42.00;15.27;;;1.40;99.90;;;;;;2082084;28;20675;-65
2021/10/28 02:28:23;;;;;;;30.98;14.07;;;1.50;99.90;;;;;;2082274;28;20181;-65
2021/10/28 02:29:24;;;;;;;25.80;13.70;;;1.50;99.90;;;;;;2082184;28;20185;-64
2021/10/28 02:30:26;;;;;;;29.77;14.53;;;1.60;99.90;;;;;;2082264;28;20185;-65
2021/10/28 02:31:26;;;;;;;31.95;15.20;;;1.60;99.90;;;;;;2082172;28;20212;-64
2021/10/28 02:32:27;;;;;;;41.00;15.50;;;1.70;99.90;;;;;;2082213;28;20216;-65
2021/10/28 02:33:28;;;;;;;32.13;14.63;;;1.70;99.90;;;;;;2082345;28;20645;-65
2021/10/28 02:34:28;;;;;;;44.97;15.67;;;1.70;99.90;;;;;;2082245;28;20205;-64
2021/10/28 02:35:29;;;;;;;31.20;14.90;;;1.80;99.90;;;;;;2082312;28;20173;-65
2021/10/28 02:36:30;;;;;;;24.07;13.70;;;1.80;99.90;;;;;;2082266;28;20173;-65
2021/10/28 02:37:31;;;;;;;22.47;12.70;;;1.80;99.90;;;;;;2082192;28;20460;-65
2021/10/28 02:38:31;;;;;;;22.70;13.47;;;1.90;99.90;;;;;;2082132;28;20181;-65
2021/10/28 02:39:32;;;;;;;23.50;13.73;;;2.00;99.90;;;;;;2082281;28;20416;-64
2021/10/28 02:40:33;;;;;;;23.93;13.80;;;2.00;99.90;;;;;;2081941;28;20601;-64
2021/10/28 02:41:34;;;;;;;28.93;15.67;;;2.10;99.90;;;;;;2081978;28;20173;-65
2021/10/28 02:42:35;;;;;;;24.45;14.52;;;2.10;99.90;;;;;;2082090;28;20206;-64
2021/10/28 02:43:36;;;;;;;26.37;14.37;;;2.20;99.90;;;;;;2082278;28;20204;-65
2021/10/28 02:44:37;;;;;;;21.13;13.32;;;2.30;99.90;;;;;;2081904;28;20173;-65
2021/10/28 02:45:38;;;;;;;49.93;16.87;;;2.30;99.90;;;;;;2082285;28;20196;-65
2021/10/28 02:46:39;;;;;;;149.20;23.43;;;2.40;99.90;;;;;;2082092;28;20205;-65
2021/10/28 02:47:40;;;;;;;85.00;19.98;;;2.40;99.90;;;;;;2082210;28;20431;-65
2021/10/28 02:48:41;;;;;;;87.67;20.47;;;2.30;99.90;;;;;;2082293;28;20192;-65
2021/10/28 02:49:41;;;;;;;161.00;29.93;;;2.40;99.90;;;;;;2082217;28;20201;-65
2021/10/28 02:50:46;;;;;;;52.53;16.77;;;2.40;99.90;;;;;;2082153;28;20283;-64
2021/10/28 02:51:47;;;;;;;121.60;28.20;;;2.40;99.90;;;;;;2081960;28;20267;-65
2021/10/28 02:52:48;;;;;;;174.07;26.38;;;2.40;99.90;;;;;;2082036;28;20180;-64
2021/10/28 02:53:49;;;;;;;59.20;17.83;;;2.40;99.90;;;;;;2082095;28;20671;-65
2021/10/28 02:54:52;;;;;;;48.95;14.73;;;2.40;99.80;;;;;;2082146;28;20216;-65
2021/10/28 02:55:53;;;;;;;77.35;18.48;;;2.50;99.90;;;;;;2082182;28;20185;-64
2021/10/28 02:56:54;;;;;;;132.88;22.92;;;2.50;99.90;;;;;;2082109;28;20224;-65
2021/10/28 02:57:55;;;;;;;85.23;20.97;;;2.50;99.60;;;;;;2082016;28;20209;-65
2021/10/28 02:58:55;;;;;;;42.13;17.60;;;2.50;99.70;;;;;;2082042;28;20551;-65
2021/10/28 02:59:56;;;;;;;65.77;17.60;;;2.50;99.80;;;;;;2081964;28;20191;-65
2021/10/28 03:00:57;;;;;;;29.33;14.80;;;2.50;99.70;;;;;;2082062;28;20181;-65
2021/10/28 03:01:59;;;;;;;27.92;14.25;;;2.60;99.70;;;;;;2081904;28;20239;-65
2021/10/28 03:03:00;;;;;;;21.60;13.40;;;2.60;99.70;;;;;;2082182;28;20185;-65
2021/10/28 03:04:00;;;;;;;21.33;12.70;;;2.60;99.70;;;;;;2082044;28;20185;-66
2021/10/28 03:05:01;;;;;;;26.53;14.07;;;2.70;99.60;;;;;;2082126;28;20275;-64
2021/10/28 03:06:02;;;;;;;33.23;13.97;;;2.70;99.50;;;;;;2081975;28;20264;-64
2021/10/28 03:07:03;;;;;;;19.83;12.23;;;2.70;99.40;;;;;;2082126;28;20512;-65
2021/10/28 03:08:04;;;;;;;27.38;13.50;;;2.70;99.50;;;;;;2081978;28;20193;-65
2021/10/28 03:09:08;;;;;;;22.45;12.95;;;2.70;99.40;;;;;;2082152;28;20186;-65
2021/10/28 03:10:10;;;;;;;23.95;13.98;;;2.70;99.50;;;;;;2081914;28;20184;-65
2021/10/28 03:11:10;;;;;;;39.38;15.00;;;2.80;99.30;;;;;;2081819;28;20220;-65
2021/10/28 03:12:11;;;;;;;51.53;17.90;;;2.80;99.00;;;;;;2081951;28;20204;-64
2021/10/28 03:13:16;;;;;;;33.40;15.00;;;2.70;99.10;;;;;;2082172;28;20193;-64
2021/10/28 03:14:21;;;;;;;54.60;16.85;;;2.70;99.20;;;;;;2081937;28;20174;-65
2021/10/28 03:15:25;;;;;;;22.33;13.25;;;2.70;99.10;;;;;;2081875;28;20189;-65
2021/10/28 03:16:45;;;;;;;22.88;13.68;;;2.80;99.30;;;;;;2081825;28;20642;-65
2021/10/28 03:26:18;;;;;;;51.60;16.47;;;2.90;99.30;;;;;;2081850;28;20221;-65
2021/10/28 03:27:19;;;;;;;31.13;14.53;;;2.90;99.50;;;;;;2081905;28;20178;-65
2021/10/28 03:28:21;;;;;;;45.07;15.80;;;2.90;99.40;;;;;;2081893;28;20185;-64
2021/10/28 03:29:21;;;;;;;35.50;15.38;;;3.00;99.40;;;;;;2081972;28;20212;-65
2021/10/28 03:30:23;;;;;;;31.20;14.80;;;3.00;99.20;;;;;;2081819;28;20197;-65
2021/10/28 03:31:24;;;;;;;42.08;15.60;;;3.00;99.00;;;;;;2081540;28;20181;-65
2021/10/28 03:32:27;;;;;;;33.23;14.37;;;3.00;99.10;;;;;;2081833;28;20307;-65
2021/10/28 03:33:27;;;;;;;29.08;14.55;;;3.00;99.00;;;;;;2081904;28;20204;-64
2021/10/28 03:34:28;;;;;;;36.73;16.73;;;3.00;98.80;;;;;;2081711;28;20210;-65
2021/10/28 03:35:29;;;;;;;55.57;21.77;;;2.90;98.80;;;;;;2081922;28;20211;-65
2021/10/28 03:36:48;;;;;;;41.60;19.23;;;2.90;98.80;;;;;;2081770;28;20652;-64
2021/10/28 03:37:54;;;;;;;33.70;17.00;;;2.90;98.80;;;;;;2081622;28;20680;-64
2021/10/28 03:44:05;;;;;;;30.75;16.05;;;3.10;99.10;;;;;;2081791;28;20166;-65
2021/10/28 04:05:27;;;;;;;35.60;18.20;;;3.40;99.00;;;;;;2081734;28;20174;-64
2021/10/28 04:21:51;;;;;;;41.85;21.08;;;3.60;99.10;;;;;;2081295;28;20162;-64
2021/10/28 04:28:53;;;;;;;32.90;20.15;;;3.70;99.10;;;;;;2081480;28;20252;-65
2021/10/28 04:29:28;;;;;;;34.00;18.48;;;3.70;98.90;;;;;;2081422;28;20187;-65
2021/10/28 04:30:29;;;;;;;36.13;17.47;;;3.70;98.80;;;;;;2081422;28;20619;-66
2021/10/28 04:31:36;;;;;;;29.17;16.90;;;3.70;98.90;;;;;;2081173;28;20228;-65
2021/10/28 04:32:37;;;;;;;32.90;16.35;;;3.70;99.00;;;;;;2081464;28;20178;-65
2021/10/28 04:33:42;;;;;;;35.10;16.53;;;3.60;98.80;;;;;;2081309;28;20228;-65
2021/10/28 04:34:44;;;;;;;53.05;21.35;;;3.60;98.80;;;;;;2081426;28;20653;-66
2021/10/28 04:35:45;;;;;;;38.35;18.45;;;3.60;99.00;;;;;;2080644;28;20588;-65
2021/10/28 04:36:45;;;;;;;39.40;18.50;;;3.60;99.00;;;;;;2080925;28;20228;-66
2021/10/28 04:37:47;;;;;;;39.47;18.00;;;3.60;99.10;;;;;;2081342;28;20475;-66
2021/10/28 04:38:47;;;;;;;33.58;17.05;;;3.60;99.20;;;;;;2081647;28;20175;-65
2021/10/28 04:39:48;;;;;;;40.77;18.47;;;3.70;99.00;;;;;;2081326;28;20191;-66
2021/10/28 04:40:49;;;;;;;50.87;19.87;;;3.70;99.00;;;;;;2081525;28;20561;-65
2021/10/28 04:41:49;;;;;;;36.83;18.10;;;3.70;99.10;;;;;;2081063;28;20188;-65
2021/10/28 04:42:50;;;;;;;32.63;17.77;;;3.70;99.10;;;;;;2081073;28;20638;-66
2021/10/28 04:43:51;;;;;;;38.77;17.93;;;3.70;99.10;;;;;;2080996;28;20198;-66
2021/10/28 04:44:52;;;;;;;33.60;18.87;;;3.70;99.10;;;;;;2081430;28;20591;-66
2021/10/28 04:45:52;;;;;;;31.23;15.10;;;3.80;99.00;;;;;;2081209;28;20642;-66
2021/10/28 04:46:53;;;;;;;31.63;16.23;;;3.80;98.90;;;;;;2081492;28;20280;-65
2021/10/28 04:47:54;;;;;;;40.07;18.70;;;3.80;98.70;;;;;;2081561;28;20265;-65
2021/10/28 04:48:54;;;;;;;37.83;17.73;;;3.80;98.60;;;;;;2081532;28;20200;-65
2021/10/28 04:49:55;;;;;;;28.23;15.23;;;3.80;98.70;;;;;;2081007;28;20250;-65
2021/10/28 04:50:56;;;;;;;34.80;18.43;;;3.80;98.70;;;;;;2081362;28;20210;-64
2021/10/28 04:51:56;;;;;;;39.30;18.13;;;3.80;98.80;;;;;;2081204;28;20194;-66
2021/10/28 04:52:57;;;;;;;46.07;20.63;;;3.80;98.80;;;;;;2081262;28;20187;-64
2021/10/28 04:53:58;;;;;;;42.73;20.60;;;3.80;99.00;;;;;;2081256;28;20190;-66
2021/10/28 04:54:59;;;;;;;42.40;21.07;;;3.90;99.00;;;;;;2081258;28;20183;-66
2021/10/28 04:55:59;;;;;;;44.93;21.07;;;3.90;98.80;;;;;;2081163;28;20182;-63
2021/10/28 04:57:00;;;;;;;43.67;20.87;;;3.80;98.70;;;;;;2081231;28;20600;-63
2021/10/28 04:58:01;;;;;;;42.77;20.60;;;3.80;98.70;;;;;;2081053;28;20213;-64
2021/10/28 04:59:01;;;;;;;43.87;20.30;;;3.90;98.60;;;;;;2081222;28;20186;-64
2021/10/28 05:00:05;;;;;;;67.10;23.30;;;3.80;98.60;;;;;;2081241;28;20206;-64
2021/10/28 05:01:06;;;;;;;60.92;23.98;;;3.90;98.80;;;;;;2081136;28;20203;-65
2021/10/28 05:02:06;;;;;;;42.10;20.03;;;3.90;98.90;;;;;;2081088;28;20221;-66
2021/10/28 05:03:07;;;;;;;89.87;25.83;;;3.90;98.90;;;;;;2081363;28;20685;-66
2021/10/28 05:04:08;;;;;;;76.40;24.27;;;3.90;98.90;;;;;;2081193;28;20513;-64
2021/10/28 05:05:08;;;;;;;100.93;31.30;;;4.00;99.00;;;;;;2081162;28;20551;-65
2021/10/28 05:06:09;;;;;;;68.67;25.50;;;4.00;98.90;;;;;;2081206;28;20210;-66
2021/10/28 05:07:10;;;;;;;53.50;23.13;;;4.00;98.90;;;;;;2081208;28;20211;-66
2021/10/28 05:08:11;;;;;;;63.60;24.30;;;4.00;98.90;;;;;;2081151;28;20425;-66
2021/10/28 05:09:14;;;;;;;34.53;19.20;;;4.00;98.80;;;;;;2081178;28;20531;-64
2021/10/28 05:10:15;;;;;;;42.22;19.45;;;4.00;98.60;;;;;;2081216;28;20427;-66
2021/10/28 05:11:17;;;;;;;53.33;21.42;;;4.00;98.60;;;;;;2080835;28;20556;-66
2021/10/28 05:12:18;;;;;;;51.80;20.10;;;3.90;98.70;;;;;;2081196;28;20221;-66
2021/10/28 05:13:19;;;;;;;61.63;20.13;;;3.90;98.80;;;;;;2081062;28;20193;-65
2021/10/28 05:14:19;;;;;;;60.47;21.83;;;3.90;98.80;;;;;;2081282;28;20182;-65
2021/10/28 05:15:20;;;;;;;50.90;19.80;;;3.90;98.80;;;;;;2081136;28;20238;-65
2021/10/28 05:16:21;;;;;;;56.67;21.87;;;3.90;98.70;;;;;;2081103;28;20187;-66
2021/10/28 05:17:22;;;;;;;58.87;20.53;;;3.90;98.70;;;;;;2080860;28;20309;-66
2021/10/28 05:18:24;;;;;;;94.50;26.77;;;3.90;98.60;;;;;;2080962;28;20521;-66
2021/10/28 05:19:28;;;;;;;38.30;18.88;;;3.90;98.80;;;;;;2081109;28;20236;-65
2021/10/28 05:20:29;;;;;;;74.78;23.80;;;3.90;98.90;;;;;;2081264;28;20181;-65
2021/10/28 05:21:29;;;;;;;125.43;29.47;;;3.80;99.00;;;;;;2080865;28;20262;-66
2021/10/28 05:22:30;;;;;;;90.47;28.03;;;3.80;99.10;;;;;;2081147;28;20183;-65
2021/10/28 05:23:31;;;;;;;58.83;23.70;;;3.80;99.20;;;;;;2081048;28;20634;-66
2021/10/28 05:24:32;;;;;;;70.47;23.53;;;3.90;99.30;;;;;;2081181;28;20178;-66
2021/10/28 05:25:33;;;;;;;84.18;28.20;;;3.90;99.20;;;;;;2081072;28;20603;-65
2021/10/28 05:26:34;;;;;;;97.13;28.87;;;3.90;99.20;;;;;;2081170;28;20196;-65
2021/10/28 05:27:35;;;;;;;77.17;24.70;;;4.00;99.10;;;;;;2081146;28;20555;-66
2021/10/28 05:28:36;;;;;;;91.77;27.27;;;4.00;99.00;;;;;;2081276;28;20182;-66
2021/10/28 05:29:37;;;;;;;44.35;20.02;;;4.00;99.00;;;;;;2081098;28;20186;-65
2021/10/28 05:30:38;;;;;;;61.73;22.20;;;4.00;98.80;;;;;;2081143;28;20757;-66
2021/10/28 05:31:38;;;;;;;61.30;21.40;;;4.00;98.70;;;;;;2080806;28;20182;-65
2021/10/28 05:32:39;;;;;;;83.73;25.00;;;4.00;98.70;;;;;;2081154;28;20325;-65
2021/10/28 05:33:41;;;;;;;65.20;23.10;;;4.00;98.60;;;;;;2081068;28;20265;-66
2021/10/28 05:34:42;;;;;;;60.90;22.80;;;4.00;98.60;;;;;;2080937;28;20517;-64
2021/10/28 05:35:42;;;;;;;70.40;24.60;;;4.00;98.70;;;;;;2081040;28;20223;-64
2021/10/28 05:36:43;;;;;;;86.30;27.73;;;4.00;98.80;;;;;;2081124;28;20205;-65
2021/10/28 05:37:44;;;;;;;45.67;21.40;;;4.00;99.00;;;;;;2080908;28;20531;-65
2021/10/28 05:38:45;;;;;;;41.88;20.73;;;4.00;99.10;;;;;;2081199;28;20221;-64
2021/10/28 05:39:45;;;;;;;50.10;22.00;;;4.00;99.40;;;;;;2081064;28;20188;-65
2021/10/28 05:40:46;;;;;;;44.30;21.47;;;4.00;99.50;;;;;;2080988;28;20556;-65
2021/10/28 05:41:47;;;;;;;65.67;24.47;;;4.00;99.60;;;;;;2080828;28;20183;-66
2021/10/28 05:42:49;;;;;;;60.40;21.47;;;4.10;99.70;;;;;;2081191;28;20232;-65
2021/10/28 05:43:50;;;;;;;43.75;21.35;;;4.10;99.80;;;;;;2080955;28;20174;-66
2021/10/28 05:44:51;;;;;;;55.65;23.95;;;4.10;99.70;;;;;;2081070;28;20194;-65
2021/10/28 05:45:51;;;;;;;46.30;21.83;;;4.20;99.90;;;;;;2080968;28;20176;-64
2021/10/28 05:46:52;;;;;;;70.37;24.13;;;4.20;99.90;;;;;;2081155;28;20195;-65
2021/10/28 05:47:53;;;;;;;56.40;23.23;;;4.30;99.90;;;;;;2081255;28;20203;-65
2021/10/28 05:48:54;;;;;;;42.67;22.63;;;4.30;99.90;;;;;;2081031;28;20183;-65
2021/10/28 05:49:54;;;;;;;49.77;23.20;;;4.30;99.90;;;;;;2080852;28;20180;-66
2021/10/28 05:50:55;;;;;;;72.30;24.83;;;4.40;99.90;;;;;;2080926;28;20183;-65
2021/10/28 05:51:56;;;;;;;44.80;22.03;;;4.40;99.90;;;;;;2080858;28;20192;-65
2021/10/28 05:52:59;;;;;;;120.93;25.93;;;4.40;99.90;;;;;;2081097;28;20574;-64
2021/10/28 05:53:59;;;;;;;118.93;29.50;;;4.50;99.90;;;;;;2081056;28;20215;-65
2021/10/28 05:55:04;;;;;;;78.90;27.13;;;4.50;99.90;;;;;;2080999;28;20238;-65
2021/10/28 05:56:04;;;;;;;77.68;25.77;;;4.50;99.90;;;;;;2080911;28;20456;-65
2021/10/28 05:57:05;;;;;;;62.77;23.13;;;4.60;99.90;;;;;;2080899;28;20701;-64
2021/10/28 05:58:06;;;;;;;49.47;22.57;;;4.60;99.90;;;;;;2081058;28;20290;-66
2021/10/28 05:59:06;;;;;;;138.93;30.30;;;4.60;99.90;;;;;;2080952;28;20211;-65
2021/10/28 06:00:08;;;;;;;106.43;25.97;;;4.60;99.90;;;;;;2081029;28;20187;-65
2021/10/28 06:01:09;;;;;;;117.80;27.90;;;4.60;99.90;;;;;;2080541;28;20600;-64
2021/10/28 06:02:10;;;;;;;81.90;25.73;;;4.60;99.90;;;;;;2081859;28;20216;-65
2021/10/28 06:03:12;;;;;;;83.87;26.67;;;4.60;99.90;;;;;;2082423;28;20184;-65
2021/10/28 06:04:12;;;;;;;69.75;25.38;;;4.60;99.90;;;;;;2082610;28;20180;-66
2021/10/28 06:05:13;;;;;;;71.73;24.33;;;4.60;99.90;;;;;;2082266;28;20655;-65
2021/10/28 06:06:14;;;;;;;91.50;25.27;;;4.60;99.90;;;;;;2082593;28;20235;-65
2021/10/28 06:07:15;;;;;;;83.70;26.30;;;4.60;99.90;;;;;;2082440;28;20298;-65
2021/10/28 06:08:15;;;;;;;73.63;24.87;;;4.60;99.90;;;;;;2082530;28;20262;-65
2021/10/28 06:09:16;;;;;;;135.50;27.27;;;4.60;99.90;;;;;;2082386;28;20188;-65
2021/10/28 06:10:18;;;;;;;93.83;24.37;;;4.60;99.90;;;;;;2082629;28;20191;-65
2021/10/28 06:11:19;;;;;;;130.82;25.92;;;4.60;99.90;;;;;;2082107;28;20289;-65
2021/10/28 06:12:21;;;;;;;104.67;28.63;;;4.60;99.90;;;;;;2082478;28;20184;-65
2021/10/28 06:13:23;;;;;;;127.32;29.40;;;4.60;99.90;;;;;;2082371;28;20514;-66
2021/10/28 06:14:26;;;;;;;180.73;44.22;;;4.60;99.90;;;;;;2082527;28;20195;-65
2021/10/28 06:15:29;;;;;;;159.85;37.50;;;4.60;99.90;;;;;;2082370;28;20223;-65
2021/10/28 06:16:32;;;;;;;75.88;29.92;;;4.70;99.90;;;;;;2082433;28;20181;-65
2021/10/28 06:17:36;;;;;;;76.95;27.13;;;4.60;99.90;;;;;;2082249;28;20309;-65
2021/10/28 06:18:38;;;;;;;97.47;31.80;;;4.70;99.90;;;;;;2082523;28;20188;-66
2021/10/28 06:19:40;;;;;;;100.88;29.70;;;4.70;99.90;;;;;;2082409;28;20335;-65
2021/10/28 06:20:41;;;;;;;71.32;27.42;;;4.70;99.90;;;;;;2082543;28;20212;-67
2021/10/28 06:21:41;;;;;;;119.13;38.53;;;4.70;99.90;;;;;;2082093;28;20173;-65
2021/10/28 06:22:42;;;;;;;166.83;41.43;;;4.80;99.90;;;;;;2080693;28;20197;-64
2021/10/28 06:23:43;;;;;;;48.72;21.80;;;4.80;99.90;;;;;;2081389;28;20258;-66